createdAt,value
2023-05-21T00:00:41.064Z,52.96
2023-05-21T00:01:41.088Z,52.89
2023-05-21T00:02:41.143Z,52.61
2023-05-21T00:03:41.283Z,52.27
2023-05-21T00:04:41.077Z,51.98
2023-05-21T00:05:41.066Z,51.73
2023-05-21T00:06:41.071Z,51.75
2023-05-21T00:07:41.032Z,51.68
2023-05-21T00:08:41.023Z,51.73
2023-05-21T00:09:41.085Z,52.41
2023-05-21T00:10:41.058Z,52.81
2023-05-21T00:11:41.045Z,52.26
2023-05-21T00:12:41.070Z,52.12
2023-05-21T00:13:41.062Z,52.67
2023-05-21T00:14:41.119Z,53.18
2023-05-21T00:15:41.152Z,54.08
2023-05-21T00:16:41.157Z,54.41
2023-05-21T00:17:41.252Z,54.40
2023-05-21T00:18:41.249Z,54.05
2023-05-21T00:19:41.269Z,54.32
2023-05-21T00:20:41.293Z,54.46
2023-05-21T00:21:41.263Z,54.23
2023-05-21T00:22:41.258Z,54.44
2023-05-21T00:23:41.305Z,54.70
2023-05-21T00:24:41.335Z,54.54
2023-05-21T00:25:41.390Z,55.05
2023-05-21T00:26:41.422Z,55.56
2023-05-21T00:27:41.444Z,56.09
2023-05-21T00:28:41.493Z,55.81
2023-05-21T00:29:44.172Z,55.73
2023-05-21T00:30:41.488Z,55.71
2023-05-21T00:31:41.587Z,55.63
2023-05-21T00:32:41.553Z,55.85
2023-05-21T00:33:41.567Z,56.45
2023-05-21T00:34:41.494Z,56.47
2023-05-21T00:35:41.494Z,56.80
2023-05-21T00:36:41.469Z,56.28
2023-05-21T00:37:41.501Z,56.11
2023-05-21T00:38:41.478Z,56.45
2023-05-21T00:39:41.458Z,56.65
2023-05-21T00:40:41.457Z,57.08
2023-05-21T00:41:41.440Z,57.45
2023-05-21T00:42:41.437Z,57.17
2023-05-21T00:43:41.500Z,57.25
2023-05-21T00:44:41.429Z,57.43
2023-05-21T00:45:41.411Z,57.43
2023-05-21T00:46:41.403Z,57.23
2023-05-21T00:47:41.465Z,57.22
2023-05-21T00:48:41.437Z,57.46
2023-05-21T00:49:41.410Z,57.26
2023-05-21T00:50:41.432Z,57.71
2023-05-21T00:51:41.397Z,57.17
2023-05-21T00:52:41.382Z,57.75
2023-05-21T00:53:41.363Z,57.72
2023-05-21T00:54:41.372Z,57.85
2023-05-21T00:55:41.353Z,57.92
2023-05-21T00:56:41.350Z,57.90
2023-05-21T00:57:41.334Z,57.68
2023-05-21T00:58:41.338Z,57.70
2023-05-21T00:59:41.330Z,57.39
2023-05-21T01:00:41.303Z,57.92
2023-05-21T01:01:41.310Z,58.42
2023-05-21T01:02:41.421Z,58.73
2023-05-21T01:03:41.421Z,58.96
2023-05-21T01:04:41.297Z,59.22
2023-05-21T01:05:41.304Z,59.08
2023-05-21T01:06:41.248Z,58.94
2023-05-21T01:07:41.288Z,59.04
2023-05-21T01:08:41.261Z,59.30
2023-05-21T01:09:41.229Z,59.48
2023-05-21T01:10:41.268Z,60.06
2023-05-21T01:11:41.271Z,59.46
2023-05-21T01:12:41.228Z,59.02
2023-05-21T01:13:41.304Z,59.09
2023-05-21T01:14:41.197Z,59.39
2023-05-21T01:15:41.236Z,59.09
2023-05-21T01:16:41.259Z,59.56
2023-05-21T01:17:41.286Z,60.13
2023-05-21T01:18:41.289Z,59.68
2023-05-21T01:19:41.217Z,60.00
2023-05-21T01:20:41.230Z,60.36
2023-05-21T01:21:41.183Z,60.18
2023-05-21T01:22:41.155Z,60.17
2023-05-21T01:23:41.147Z,59.57
2023-05-21T01:24:41.167Z,59.62
2023-05-21T01:25:41.173Z,60.25
2023-05-21T01:26:41.147Z,60.07
2023-05-21T01:27:41.160Z,60.16
2023-05-21T01:28:41.939Z,59.65
2023-05-21T01:29:41.141Z,59.04
2023-05-21T01:30:41.133Z,58.99
2023-05-21T01:31:41.101Z,59.08
2023-05-21T01:32:41.131Z,58.75
2023-05-21T01:33:41.140Z,58.71
2023-05-21T01:34:41.100Z,58.41
2023-05-21T01:35:41.101Z,59.24
2023-05-21T01:36:41.082Z,59.55
2023-05-21T01:37:41.052Z,59.67
2023-05-21T01:38:41.078Z,59.61
2023-05-21T01:39:41.115Z,59.28
2023-05-21T01:40:41.130Z,59.48
2023-05-21T01:41:41.218Z,60.56
2023-05-21T01:42:42.167Z,60.35
2023-05-21T01:43:41.215Z,60.11
2023-05-21T01:44:41.227Z,59.75
2023-05-21T01:45:41.274Z,59.75
2023-05-21T01:46:41.378Z,59.37
2023-05-21T01:47:41.398Z,59.53
2023-05-21T01:48:41.432Z,59.70
2023-05-21T01:49:41.426Z,59.61
2023-05-21T01:50:41.474Z,59.42
2023-05-21T01:51:41.508Z,59.89
2023-05-21T01:52:41.530Z,59.53
2023-05-21T01:53:41.591Z,59.82
2023-05-21T01:54:41.585Z,60.11
2023-05-21T01:55:41.607Z,60.39
2023-05-21T01:56:41.624Z,60.59
2023-05-21T01:57:41.682Z,60.23
2023-05-21T01:58:41.697Z,59.94
2023-05-21T01:59:41.701Z,59.89
2023-05-21T02:00:41.718Z,60.35
2023-05-21T02:01:41.785Z,60.57
2023-05-21T02:02:41.808Z,61.73
2023-05-21T02:03:41.882Z,62.21
2023-05-21T02:04:41.790Z,62.29
2023-05-21T02:05:41.812Z,62.10
2023-05-21T02:06:41.870Z,61.94
2023-05-21T02:07:41.957Z,61.91
2023-05-21T02:08:41.904Z,62.02
2023-05-21T02:09:41.943Z,61.46
2023-05-21T02:10:41.992Z,61.07
2023-05-21T02:11:42.026Z,61.62
2023-05-21T02:12:42.110Z,61.52
2023-05-21T02:13:42.113Z,61.80
2023-05-21T02:14:42.137Z,61.72
2023-05-21T02:16:52.580Z,61.40
2023-05-21T02:17:52.677Z,61.35
2023-05-21T02:18:52.671Z,61.27
2023-05-21T02:19:52.660Z,61.73
2023-05-21T02:20:52.641Z,61.38
2023-05-21T02:21:52.613Z,61.46
2023-05-21T02:22:52.589Z,62.12
2023-05-21T02:23:52.582Z,62.17
2023-05-21T02:24:52.545Z,62.57
2023-05-21T02:25:52.550Z,62.80
2023-05-21T02:26:52.624Z,62.83
2023-05-21T02:27:52.566Z,62.42
2023-05-21T02:28:52.562Z,61.92
2023-05-21T02:29:52.558Z,61.93
2023-05-21T02:30:52.563Z,62.41
2023-05-21T02:31:52.548Z,62.49
2023-05-21T02:32:52.558Z,62.47
2023-05-21T02:33:52.571Z,62.16
2023-05-21T02:34:52.488Z,61.97
2023-05-21T02:35:52.517Z,62.24
2023-05-21T02:36:52.545Z,61.98
2023-05-21T02:37:52.441Z,61.88
2023-05-21T02:38:52.441Z,61.52
2023-05-21T02:39:52.450Z,61.22
2023-05-21T02:40:52.470Z,61.08
2023-05-21T02:41:52.470Z,61.15
2023-05-21T02:42:52.448Z,61.02
2023-05-21T02:43:52.423Z,61.23
2023-05-21T02:44:52.409Z,61.70
2023-05-21T02:45:52.439Z,61.63
2023-05-21T02:46:52.463Z,61.40
2023-05-21T02:47:52.440Z,61.28
2023-05-21T02:48:52.369Z,61.08
2023-05-21T02:49:52.400Z,61.22
2023-05-21T02:50:52.407Z,60.90
2023-05-21T02:51:52.361Z,60.74
2023-05-21T02:52:52.436Z,60.68
2023-05-21T02:53:52.352Z,60.62
2023-05-21T02:54:52.361Z,60.78
2023-05-21T02:55:52.361Z,60.99
2023-05-21T02:56:52.392Z,60.85
2023-05-21T02:57:52.360Z,60.98
2023-05-21T02:58:52.360Z,61.22
2023-05-21T02:59:52.306Z,61.02
2023-05-21T03:00:52.437Z,61.15
2023-05-21T03:01:52.335Z,61.12
2023-05-21T03:02:52.368Z,61.16
2023-05-21T03:03:52.286Z,61.41
2023-05-21T03:04:52.279Z,61.37
2023-05-21T03:05:52.284Z,61.14
2023-05-21T03:06:52.278Z,61.29
2023-05-21T03:07:52.251Z,61.55
2023-05-21T03:08:52.251Z,61.39
2023-05-21T03:09:52.203Z,61.16
2023-05-21T03:10:52.251Z,60.89
2023-05-21T03:11:52.245Z,60.77
2023-05-21T03:12:52.243Z,61.65
2023-05-21T03:13:52.231Z,61.60
2023-05-21T03:14:52.235Z,61.38
2023-05-21T03:15:52.202Z,61.31
2023-05-21T03:16:52.236Z,61.38
2023-05-21T03:17:52.303Z,61.27
2023-05-21T03:18:52.235Z,61.26
2023-05-21T03:19:52.231Z,61.27
2023-05-21T03:20:52.290Z,61.09
2023-05-21T03:21:52.288Z,61.03
2023-05-21T03:22:52.307Z,61.11
2023-05-21T03:23:52.327Z,61.45
2023-05-21T03:24:52.358Z,61.79
2023-05-21T03:25:52.859Z,62.00
2023-05-21T03:26:52.430Z,62.45
2023-05-21T03:27:52.435Z,62.86
2023-05-21T03:28:52.541Z,63.06
2023-05-21T03:29:52.557Z,63.41
2023-05-21T03:30:52.547Z,63.59
2023-05-21T03:31:52.661Z,63.43
2023-05-21T03:32:52.773Z,63.31
2023-05-21T03:33:52.637Z,63.33
2023-05-21T03:34:52.630Z,63.08
2023-05-21T03:35:52.685Z,62.72
2023-05-21T03:36:52.654Z,62.37
2023-05-21T03:37:52.706Z,62.65
2023-05-21T03:38:52.716Z,62.71
2023-05-21T03:39:52.758Z,62.97
2023-05-21T03:40:52.770Z,63.17
2023-05-21T03:41:52.787Z,63.23
2023-05-21T03:42:52.842Z,63.41
2023-05-21T03:43:52.858Z,63.61
2023-05-21T03:44:52.894Z,63.64
2023-05-21T03:45:52.979Z,63.44
2023-05-21T03:46:53.029Z,63.33
2023-05-21T03:47:53.033Z,63.21
2023-05-21T03:48:53.032Z,62.79
2023-05-21T03:49:53.046Z,62.61
2023-05-21T03:50:53.097Z,62.70
2023-05-21T03:51:53.140Z,62.60
2023-05-21T03:52:53.137Z,62.84
2023-05-21T03:53:53.205Z,63.01
2023-05-21T03:54:53.245Z,63.00
2023-05-21T03:55:53.242Z,63.45
2023-05-21T03:56:53.287Z,63.27
2023-05-21T03:57:53.289Z,63.77
2023-05-21T03:58:53.365Z,63.55
2023-05-21T03:59:53.366Z,63.83
2023-05-21T04:00:53.432Z,63.82
2023-05-21T04:01:53.488Z,63.90
2023-05-21T04:02:53.573Z,64.24
2023-05-21T04:03:53.639Z,64.81
2023-05-21T04:04:53.720Z,65.16
2023-05-21T04:05:53.592Z,65.09
2023-05-21T04:06:53.608Z,65.23
2023-05-21T04:07:53.620Z,65.51
2023-05-21T04:08:53.663Z,64.96
2023-05-21T04:09:53.673Z,64.67
2023-05-21T04:10:53.730Z,64.50
2023-05-21T04:11:53.800Z,64.46
2023-05-21T04:12:53.749Z,65.01
2023-05-21T04:13:53.769Z,65.74
2023-05-21T04:14:53.777Z,66.64
2023-05-21T04:15:53.913Z,67.11
2023-05-21T04:16:53.900Z,66.95
2023-05-21T04:17:53.920Z,66.40
2023-05-21T04:18:54.024Z,65.94
2023-05-21T04:19:53.956Z,65.76
2023-05-21T04:20:54.023Z,65.88
2023-05-21T04:21:53.972Z,66.17
2023-05-21T04:22:53.978Z,66.27
2023-05-21T04:23:54.042Z,66.36
2023-05-21T04:24:54.039Z,66.13
2023-05-21T04:25:54.083Z,65.88
2023-05-21T04:26:54.153Z,65.66
2023-05-21T04:27:54.170Z,65.65
2023-05-21T04:28:54.224Z,65.83
2023-05-21T04:29:54.215Z,65.96
2023-05-21T04:30:54.322Z,65.48
2023-05-21T04:31:54.291Z,64.87
2023-05-21T04:32:54.292Z,64.55
2023-05-21T04:33:54.342Z,64.23
2023-05-21T04:34:54.378Z,64.15
2023-05-21T04:35:54.438Z,63.91
2023-05-21T04:36:54.469Z,63.88
2023-05-21T04:37:54.548Z,63.56
2023-05-21T04:38:54.553Z,63.41
2023-05-21T04:39:54.589Z,63.46
2023-05-21T04:40:54.597Z,63.79
2023-05-21T04:41:54.647Z,64.00
2023-05-21T04:42:54.634Z,64.03
2023-05-21T04:43:54.695Z,63.66
2023-05-21T04:44:54.714Z,63.30
2023-05-21T04:45:54.749Z,62.61
2023-05-21T04:46:54.943Z,62.17
2023-05-21T04:47:54.895Z,62.23
2023-05-21T04:48:54.963Z,62.23
2023-05-21T04:49:54.858Z,61.92
2023-05-21T04:50:54.895Z,62.00
2023-05-21T04:51:54.875Z,61.88
2023-05-21T04:52:54.963Z,61.65
2023-05-21T04:53:54.951Z,61.36
2023-05-21T04:54:54.913Z,60.83
2023-05-21T04:55:54.972Z,60.33
2023-05-21T04:56:54.980Z,60.09
2023-05-21T04:57:55.023Z,59.86
2023-05-21T04:58:55.018Z,59.61
2023-05-21T04:59:55.032Z,60.55
2023-05-21T05:00:55.135Z,61.28
2023-05-21T05:01:55.113Z,61.58
2023-05-21T05:02:55.257Z,61.35
2023-05-21T05:03:55.161Z,60.87
2023-05-21T05:04:55.180Z,60.43
2023-05-21T05:05:55.240Z,59.86
2023-05-21T05:06:55.263Z,59.51
2023-05-21T05:07:55.265Z,59.42
2023-05-21T05:08:55.287Z,59.19
2023-05-21T05:09:55.327Z,58.62
2023-05-21T05:10:55.361Z,58.57
2023-05-21T05:11:55.380Z,58.17
2023-05-21T05:12:55.415Z,58.00
2023-05-21T05:13:55.445Z,57.78
2023-05-21T05:14:55.509Z,57.78
2023-05-21T05:15:55.529Z,57.47
2023-05-21T05:16:55.614Z,57.29
2023-05-21T05:17:55.548Z,57.24
2023-05-21T05:18:55.579Z,57.16
2023-05-21T05:19:55.587Z,57.12
2023-05-21T05:20:55.604Z,57.30
2023-05-21T05:21:55.559Z,57.05
2023-05-21T05:22:55.605Z,56.92
2023-05-21T05:23:55.669Z,56.83
2023-05-21T05:24:55.692Z,56.78
2023-05-21T05:25:55.741Z,56.98
2023-05-21T05:26:55.726Z,57.32
2023-05-21T05:27:55.795Z,57.34
2023-05-21T05:28:55.804Z,57.17
2023-05-21T05:29:55.856Z,57.15
2023-05-21T05:30:55.889Z,57.00
2023-05-21T05:31:55.862Z,56.74
2023-05-21T05:32:55.968Z,56.53
2023-05-21T05:33:55.884Z,56.49
2023-05-21T05:34:56.046Z,56.29
2023-05-21T05:35:56.061Z,55.99
2023-05-21T05:36:56.076Z,56.14
2023-05-21T05:37:56.089Z,56.19
2023-05-21T05:38:56.093Z,56.10
2023-05-21T05:39:56.091Z,55.99
2023-05-21T05:40:56.123Z,56.04
2023-05-21T05:41:56.175Z,55.99
2023-05-21T05:42:56.164Z,55.73
2023-05-21T05:43:56.113Z,55.54
2023-05-21T05:44:56.155Z,55.17
2023-05-21T05:45:56.270Z,54.80
2023-05-21T05:46:56.307Z,54.76
2023-05-21T05:47:56.382Z,54.81
2023-05-21T05:48:56.389Z,55.03
2023-05-21T05:49:56.389Z,54.81
2023-05-21T05:50:56.470Z,54.61
2023-05-21T05:51:56.494Z,54.54
2023-05-21T05:52:56.512Z,54.25
2023-05-21T05:53:56.542Z,53.86
2023-05-21T05:54:56.599Z,53.76
2023-05-21T05:55:56.588Z,53.64
2023-05-21T05:56:56.624Z,53.16
2023-05-21T05:57:56.626Z,53.02
2023-05-21T05:58:56.709Z,53.06
2023-05-21T05:59:56.683Z,52.66
2023-05-21T06:00:56.754Z,51.78
2023-05-21T06:01:58.336Z,51.77
2023-05-21T06:02:56.927Z,51.33
2023-05-21T06:03:56.844Z,51.27
2023-05-21T06:04:56.828Z,51.67
2023-05-21T06:05:56.946Z,51.34
2023-05-21T06:06:56.855Z,51.27
2023-05-21T06:07:56.894Z,50.95
2023-05-21T06:08:56.936Z,51.17
2023-05-21T06:09:57.034Z,50.71
2023-05-21T06:10:56.975Z,49.69
2023-05-21T06:11:57.025Z,48.94
2023-05-21T06:12:57.025Z,48.59
2023-05-21T06:13:57.065Z,48.55
2023-05-21T06:14:57.112Z,48.30
2023-05-21T06:15:57.162Z,48.17
2023-05-21T06:16:57.160Z,47.47
2023-05-21T06:17:57.211Z,48.27
2023-05-21T06:18:57.240Z,48.12
2023-05-21T06:19:57.238Z,47.97
2023-05-21T06:20:57.289Z,46.91
2023-05-21T06:21:57.317Z,46.48
2023-05-21T06:22:57.301Z,45.89
2023-05-21T06:23:57.402Z,45.72
2023-05-21T06:24:57.437Z,45.95
2023-05-21T06:25:57.472Z,45.96
2023-05-21T06:26:57.436Z,46.02
2023-05-21T06:27:57.560Z,45.90
2023-05-21T06:28:57.555Z,45.93
2023-05-21T06:29:57.558Z,45.45
2023-05-21T06:30:57.562Z,44.94
2023-05-21T06:31:57.601Z,44.66
2023-05-21T06:32:57.738Z,44.56
2023-05-21T06:33:57.782Z,44.09
2023-05-21T06:34:57.757Z,43.62
2023-05-21T06:35:57.816Z,43.61
2023-05-21T06:36:57.809Z,43.41
2023-05-21T06:37:57.815Z,42.96
2023-05-21T06:38:57.871Z,44.15
2023-05-21T06:39:57.825Z,44.18
2023-05-21T06:40:57.952Z,44.16
2023-05-21T06:41:57.928Z,43.78
2023-05-21T06:42:57.956Z,43.45
2023-05-21T06:43:57.988Z,43.19
2023-05-21T06:44:57.995Z,43.08
2023-05-21T06:45:58.129Z,42.67
2023-05-21T06:46:58.101Z,43.16
2023-05-21T06:47:58.129Z,43.04
2023-05-21T06:48:58.128Z,42.83
2023-05-21T06:49:58.159Z,42.41
2023-05-21T06:50:58.197Z,42.29
2023-05-21T06:51:58.218Z,42.31
2023-05-21T06:52:58.247Z,41.96
2023-05-21T06:53:58.260Z,41.96
2023-05-21T06:54:58.296Z,41.63
2023-05-21T06:55:58.347Z,42.82
2023-05-21T06:56:58.357Z,42.79
2023-05-21T06:57:58.364Z,42.30
2023-05-21T06:58:58.363Z,41.82
2023-05-21T06:59:58.413Z,41.81
2023-05-21T07:00:58.521Z,41.45
2023-05-21T07:01:58.502Z,41.30
2023-05-21T07:02:58.632Z,41.26
2023-05-21T07:03:58.546Z,41.16
2023-05-21T07:04:58.536Z,40.81
2023-05-21T07:05:58.632Z,40.59
2023-05-21T07:06:58.642Z,40.21
2023-05-21T07:07:58.654Z,40.01
2023-05-21T07:08:58.640Z,39.54
2023-05-21T07:09:58.715Z,39.10
2023-05-21T07:10:58.742Z,39.42
2023-05-21T07:11:58.695Z,38.76
2023-05-21T07:12:58.756Z,38.66
2023-05-21T07:13:58.791Z,38.36
2023-05-21T07:14:59.431Z,37.78
2023-05-21T07:15:58.827Z,37.72
2023-05-21T07:16:58.948Z,37.40
2023-05-21T07:17:58.968Z,36.84
2023-05-21T07:18:59.026Z,36.39
2023-05-21T07:19:59.032Z,36.41
2023-05-21T07:20:59.185Z,37.18
2023-05-21T07:21:59.034Z,36.71
2023-05-21T07:22:59.037Z,36.50
2023-05-21T07:23:59.097Z,36.51
2023-05-21T07:24:59.113Z,36.53
2023-05-21T07:25:59.164Z,35.92
2023-05-21T07:26:59.165Z,35.77
2023-05-21T07:27:59.196Z,35.50
2023-05-21T07:28:59.235Z,35.13
2023-05-21T07:29:59.260Z,35.51
2023-05-21T07:30:59.371Z,35.68
2023-05-21T07:31:59.367Z,35.20
2023-05-21T07:32:59.438Z,34.85
2023-05-21T07:33:59.420Z,34.45
2023-05-21T07:34:59.426Z,34.45
2023-05-21T07:35:59.447Z,34.56
2023-05-21T07:36:59.549Z,34.09
2023-05-21T07:37:59.527Z,34.54
2023-05-21T07:38:59.961Z,34.57
2023-05-21T07:39:59.540Z,33.69
2023-05-21T07:40:59.588Z,33.46
2023-05-21T07:41:59.574Z,33.33
2023-05-21T07:42:59.599Z,33.40
2023-05-21T07:43:59.674Z,33.04
2023-05-21T07:44:59.722Z,32.81
2023-05-21T07:45:59.770Z,32.59
2023-05-21T07:46:59.774Z,33.15
2023-05-21T07:47:59.855Z,32.55
2023-05-21T07:48:59.859Z,32.51
2023-05-21T07:49:59.983Z,32.81
2023-05-21T07:50:59.955Z,33.09
2023-05-21T07:51:59.951Z,32.52
2023-05-21T07:53:00.033Z,32.30
2023-05-21T07:53:59.980Z,32.08
2023-05-21T07:54:59.997Z,31.69
2023-05-21T07:56:00.052Z,31.17
2023-05-21T07:57:00.102Z,30.96
2023-05-21T07:58:00.107Z,31.00
2023-05-21T07:59:00.151Z,31.58
2023-05-21T08:00:00.134Z,31.56
2023-05-21T08:01:00.179Z,31.39
2023-05-21T08:02:00.179Z,30.84
2023-05-21T08:03:00.334Z,29.94
2023-05-21T08:04:00.393Z,29.94
2023-05-21T08:05:00.379Z,29.85
2023-05-21T08:06:01.131Z,29.64
2023-05-21T08:07:00.403Z,29.84
2023-05-21T08:08:00.398Z,29.68
2023-05-21T08:09:00.459Z,29.87
2023-05-21T08:10:02.539Z,29.43
2023-05-21T08:11:00.503Z,29.69
2023-05-21T08:12:00.482Z,29.65
2023-05-21T08:13:00.450Z,29.73
2023-05-21T08:14:00.485Z,29.12
2023-05-21T08:15:00.475Z,28.80
2023-05-21T08:16:00.581Z,28.37
2023-05-21T08:17:00.577Z,28.23
2023-05-21T08:18:00.608Z,28.12
2023-05-21T08:19:00.731Z,27.93
2023-05-21T08:20:00.621Z,28.02
2023-05-21T08:21:00.672Z,28.03
2023-05-21T08:22:00.691Z,27.95
2023-05-21T08:23:00.728Z,27.50
2023-05-21T08:24:00.760Z,27.36
2023-05-21T08:25:00.731Z,27.32
2023-05-21T08:26:00.806Z,26.57
2023-05-21T08:27:00.807Z,26.44
2023-05-21T08:28:00.874Z,26.52
2023-05-21T08:29:00.893Z,27.03
2023-05-21T08:30:00.907Z,27.38
2023-05-21T08:31:00.948Z,27.27
2023-05-21T08:32:01.070Z,27.09
2023-05-21T08:33:01.088Z,27.60
2023-05-21T08:34:01.029Z,28.10
2023-05-21T08:35:02.150Z,27.25
2023-05-21T08:36:01.126Z,27.33
2023-05-21T08:37:01.208Z,27.36
2023-05-21T08:38:01.209Z,27.33
2023-05-21T08:39:01.237Z,27.59
2023-05-21T08:40:01.252Z,27.65
2023-05-21T08:41:01.315Z,28.21
2023-05-21T08:42:01.328Z,27.68
2023-05-21T08:43:01.363Z,26.93
2023-05-21T08:44:01.407Z,27.16
2023-05-21T08:45:01.411Z,27.02
2023-05-21T08:46:01.523Z,26.68
2023-05-21T08:47:01.500Z,27.42
2023-05-21T08:48:01.530Z,27.06
2023-05-21T08:49:01.575Z,26.68
2023-05-21T08:50:01.605Z,26.60
2023-05-21T08:51:01.659Z,25.77
2023-05-21T08:52:01.692Z,25.59
2023-05-21T08:53:04.028Z,25.08
2023-05-21T08:54:02.680Z,25.29
2023-05-21T08:55:01.677Z,25.68
2023-05-21T08:56:01.667Z,26.02
2023-05-21T08:57:01.667Z,25.50
2023-05-21T08:58:01.705Z,25.45
2023-05-21T08:59:01.660Z,25.95
2023-05-21T09:00:01.642Z,25.96
2023-05-21T09:01:01.670Z,25.69
2023-05-21T09:02:01.754Z,25.99
2023-05-21T09:03:01.753Z,25.49
2023-05-21T09:04:12.217Z,23.36
2023-05-21T09:05:02.635Z,25.67
2023-05-21T09:06:01.653Z,26.72
2023-05-21T09:07:01.605Z,25.89
2023-05-21T09:08:01.566Z,25.07
2023-05-21T09:09:01.593Z,23.76
2023-05-21T09:10:01.558Z,22.07
2023-05-21T09:11:01.618Z,22.69
2023-05-21T09:12:01.591Z,21.35
2023-05-21T09:13:01.534Z,21.34
2023-05-21T09:14:01.534Z,21.25
2023-05-21T09:15:01.560Z,20.85
2023-05-21T09:16:01.591Z,22.26
2023-05-21T09:17:01.657Z,23.21
2023-05-21T09:18:01.605Z,22.94
2023-05-21T09:19:04.377Z,22.66
2023-05-21T09:20:01.555Z,22.88
2023-05-21T09:21:01.587Z,24.98
2023-05-21T09:22:01.563Z,25.81
2023-05-21T09:23:01.534Z,25.71
2023-05-21T09:24:01.618Z,24.48
2023-05-21T09:25:01.561Z,23.60
2023-05-21T09:26:01.559Z,23.03
2023-05-21T09:27:01.501Z,22.36
2023-05-21T09:28:01.518Z,21.95
2023-05-21T09:29:01.523Z,21.81
2023-05-21T09:30:01.525Z,21.42
2023-05-21T09:31:01.533Z,21.39
2023-05-21T09:32:01.506Z,21.21
2023-05-21T09:33:01.544Z,21.44
2023-05-21T09:34:01.546Z,21.80
2023-05-21T09:35:01.445Z,22.55
2023-05-21T09:36:01.489Z,22.34
2023-05-21T09:37:01.420Z,22.75
2023-05-21T09:38:01.427Z,22.89
2023-05-21T09:39:01.409Z,22.56
2023-05-21T09:40:01.452Z,21.78
2023-05-21T09:41:01.427Z,21.56
2023-05-21T09:42:01.444Z,21.95
2023-05-21T09:43:01.370Z,22.61
2023-05-21T09:44:01.386Z,22.21
2023-05-21T09:45:01.387Z,22.35
2023-05-21T09:46:02.313Z,22.87
2023-05-21T09:47:01.388Z,22.20
2023-05-21T09:48:01.426Z,22.03
2023-05-21T09:49:01.364Z,21.17
2023-05-21T09:50:01.389Z,20.88
2023-05-21T09:51:01.385Z,21.18
2023-05-21T09:52:01.312Z,20.85
2023-05-21T09:53:01.311Z,20.64
2023-05-21T09:54:01.325Z,20.51
2023-05-21T09:55:01.386Z,20.21
2023-05-21T09:56:01.317Z,19.98
2023-05-21T09:57:01.291Z,20.48
2023-05-21T09:58:01.300Z,20.88
2023-05-21T09:59:01.329Z,21.47
2023-05-21T10:00:01.314Z,21.94
2023-05-21T10:01:01.296Z,22.95
2023-05-21T10:02:01.398Z,22.57
2023-05-21T10:03:01.352Z,23.22
2023-05-21T10:04:01.307Z,22.60
2023-05-21T10:05:01.285Z,21.86
2023-05-21T10:06:01.286Z,22.15
2023-05-21T10:07:01.218Z,22.47
2023-05-21T10:08:01.256Z,22.53
2023-05-21T10:09:02.542Z,23.38
2023-05-21T10:10:01.227Z,23.20
2023-05-21T10:11:01.222Z,22.79
2023-05-21T10:12:01.226Z,22.76
2023-05-21T10:13:01.216Z,22.69
2023-05-21T10:14:01.194Z,22.11
2023-05-21T10:15:01.164Z,22.61
2023-05-21T10:16:01.261Z,22.48
2023-05-21T10:17:01.195Z,22.52
2023-05-21T10:18:01.260Z,22.45
2023-05-21T10:19:01.257Z,22.63
2023-05-21T10:20:01.168Z,22.24
2023-05-21T10:21:01.179Z,23.86
2023-05-21T10:22:01.150Z,24.10
2023-05-21T10:23:01.147Z,23.52
2023-05-21T10:24:01.169Z,22.73
2023-05-21T10:25:01.137Z,22.14
2023-05-21T10:26:01.104Z,21.99
2023-05-21T10:27:01.113Z,21.83
2023-05-21T10:28:01.079Z,21.80
2023-05-21T10:29:01.105Z,21.04
2023-05-21T10:30:01.139Z,21.29
2023-05-21T10:31:01.084Z,20.95
2023-05-21T10:32:01.193Z,21.09
2023-05-21T10:33:01.228Z,21.29
2023-05-21T10:34:01.071Z,21.24
2023-05-21T10:35:01.883Z,21.50
2023-05-21T10:36:01.077Z,21.31
2023-05-21T10:37:01.061Z,21.17
2023-05-21T10:38:01.087Z,21.20
2023-05-21T10:39:00.999Z,20.99
2023-05-21T10:40:01.041Z,20.92
2023-05-21T10:41:01.000Z,20.80
2023-05-21T10:42:01.025Z,20.84
2023-05-21T10:43:01.011Z,20.92
2023-05-21T10:44:01.006Z,21.61
2023-05-21T10:45:00.985Z,22.48
2023-05-21T10:46:01.077Z,22.24
2023-05-21T10:47:00.972Z,21.81
2023-05-21T10:48:01.028Z,22.34
2023-05-21T10:49:00.972Z,21.88
2023-05-21T10:50:00.978Z,21.50
2023-05-21T10:51:00.980Z,21.34
2023-05-21T10:52:00.958Z,21.50
2023-05-21T10:53:01.007Z,21.50
2023-05-21T10:54:00.936Z,21.04
2023-05-21T10:55:00.929Z,21.38
2023-05-21T10:56:00.962Z,20.69
2023-05-21T10:57:00.966Z,20.73
2023-05-21T10:58:00.879Z,20.60
2023-05-21T10:59:00.880Z,20.56
2023-05-21T11:00:01.009Z,20.73
2023-05-21T11:01:01.094Z,21.02
2023-05-21T11:02:01.056Z,20.75
2023-05-21T11:03:01.080Z,20.35
2023-05-21T11:04:01.195Z,19.92
2023-05-21T11:05:01.114Z,19.74
2023-05-21T11:06:01.127Z,19.74
2023-05-21T11:07:01.094Z,20.24
2023-05-21T11:08:01.174Z,20.31
2023-05-21T11:09:01.212Z,20.11
2023-05-21T11:10:01.224Z,20.72
2023-05-21T11:11:01.281Z,20.46
2023-05-21T11:12:01.277Z,20.00
2023-05-21T11:13:01.259Z,19.94
2023-05-21T11:14:01.322Z,19.81
2023-05-21T11:15:01.298Z,20.20
2023-05-21T11:16:01.364Z,20.34
2023-05-21T11:17:01.423Z,19.59
2023-05-21T11:18:01.468Z,20.04
2023-05-21T11:19:01.530Z,19.85
2023-05-21T11:20:01.534Z,20.02
2023-05-21T11:21:01.548Z,19.85
2023-05-21T11:22:01.500Z,19.49
2023-05-21T11:23:01.570Z,19.48
2023-05-21T11:24:01.640Z,18.82
2023-05-21T11:25:01.635Z,18.86
2023-05-21T11:26:01.737Z,18.45
2023-05-21T11:27:01.693Z,18.47
2023-05-21T11:28:01.762Z,18.50
2023-05-21T11:29:01.758Z,18.32
2023-05-21T11:30:01.818Z,18.55
2023-05-21T11:31:01.850Z,17.94
2023-05-21T11:32:01.881Z,17.67
2023-05-21T11:33:01.945Z,17.67
2023-05-21T11:34:01.945Z,17.91
2023-05-21T11:35:02.054Z,17.84
2023-05-21T11:36:02.016Z,17.88
2023-05-21T11:37:02.014Z,18.13
2023-05-21T11:38:02.021Z,18.11
2023-05-21T11:39:02.074Z,18.10
2023-05-21T11:40:02.131Z,18.08
2023-05-21T11:41:02.166Z,18.03
2023-05-21T11:42:04.465Z,18.39
2023-05-21T11:43:02.312Z,18.51
2023-05-21T11:44:02.387Z,18.16
2023-05-21T11:45:02.483Z,18.14
2023-05-21T11:46:02.550Z,17.73
2023-05-21T11:47:02.518Z,18.26
2023-05-21T11:48:02.583Z,18.02
2023-05-21T11:49:02.506Z,18.17
2023-05-21T11:50:02.585Z,17.81
2023-05-21T11:51:02.569Z,17.90
2023-05-21T11:52:02.644Z,17.43
2023-05-21T11:53:02.663Z,17.57
2023-05-21T11:54:02.674Z,17.42
2023-05-21T11:55:02.695Z,17.61
2023-05-21T11:56:02.772Z,17.87
2023-05-21T11:57:02.762Z,18.01
2023-05-21T11:58:02.772Z,17.81
2023-05-21T11:59:02.864Z,17.33
2023-05-21T12:00:02.826Z,17.19
2023-05-21T12:01:02.913Z,17.21
2023-05-21T12:02:02.909Z,17.50
2023-05-21T12:03:02.978Z,17.74
2023-05-21T12:04:03.082Z,17.41
2023-05-21T12:05:03.036Z,17.94
2023-05-21T12:06:03.129Z,17.81
2023-05-21T12:07:03.082Z,17.45
2023-05-21T12:08:03.102Z,17.48
2023-05-21T12:09:03.112Z,17.29
2023-05-21T12:10:03.178Z,17.44
2023-05-21T12:11:03.216Z,17.20
2023-05-21T12:12:03.211Z,17.44
2023-05-21T12:13:04.956Z,17.91
2023-05-21T12:14:03.396Z,18.45
2023-05-21T12:15:03.365Z,18.07
2023-05-21T12:16:05.908Z,18.14
2023-05-21T12:17:03.358Z,18.45
2023-05-21T12:18:03.432Z,18.24
2023-05-21T12:19:03.411Z,18.29
2023-05-21T12:20:03.846Z,17.82
2023-05-21T12:21:03.341Z,18.21
2023-05-21T12:22:03.358Z,18.31
2023-05-21T12:23:03.330Z,17.90
2023-05-21T12:24:03.303Z,18.12
2023-05-21T12:25:03.303Z,18.38
2023-05-21T12:26:03.324Z,18.00
2023-05-21T12:27:03.312Z,17.73
2023-05-21T12:28:03.317Z,17.64
2023-05-21T12:29:03.309Z,17.85
2023-05-21T12:30:03.289Z,18.04
2023-05-21T12:31:03.303Z,17.42
2023-05-21T12:32:03.368Z,17.44
2023-05-21T12:33:03.302Z,16.98
2023-05-21T12:34:03.267Z,17.15
2023-05-21T12:35:03.259Z,16.65
2023-05-21T12:36:03.298Z,16.96
2023-05-21T12:37:03.239Z,16.83
2023-05-21T12:38:03.246Z,16.38
2023-05-21T12:39:03.261Z,16.66
2023-05-21T12:40:03.266Z,16.21
2023-05-21T12:41:03.303Z,16.51
2023-05-21T12:42:03.222Z,16.48
2023-05-21T12:43:03.182Z,16.09
2023-05-21T12:44:03.196Z,15.82
2023-05-21T12:45:03.212Z,15.53
2023-05-21T12:46:03.306Z,15.79
2023-05-21T12:47:03.209Z,16.39
2023-05-21T12:48:03.216Z,16.39
2023-05-21T12:49:03.183Z,16.34
2023-05-21T12:50:03.175Z,16.17
2023-05-21T12:51:03.185Z,16.10
2023-05-21T12:52:03.173Z,16.46
2023-05-21T12:53:03.149Z,17.11
2023-05-21T12:54:03.151Z,17.43